Xingren, China
Current Conditions -  °F | °C
As of 10:00 AM on Monday 22 Dec 2014 (Local Time) from ZUGY Reporting Station
Haze Haze  
Wind Chill: 34°   Ceiling: Unl
Heat Index: 34°   Visibility: 1.5mi
Dew Point: 34°   Wind: 2mph
Humidity: 100%   Direction: NA
Pressure: 30.3"   Gusts: NA
Location:  25.43°N, 105.18°E
Report Text: ZUGY 220200Z VRB01MPS 2500 BR FEW003 01/01 Q1026 BECMG TL02303000
Loading
Personal Weather Stations






























Interactive Weather Map New forecast layout! Learn more

10-Day Weather Forecast

Advertisements
Track Severe Weather on mobile